createdAt,value
2023-03-14T00:02:02.605Z,3.80
2023-03-14T00:04:29.301Z,1.90
2023-03-14T00:06:55.964Z,4.40
2023-03-14T00:09:23.836Z,3.33
2023-03-14T00:11:50.695Z,3.83
2023-03-14T00:14:18.120Z,8.02
2023-03-14T00:16:47.214Z,3.03
2023-03-14T00:19:13.911Z,4.85
2023-03-14T00:21:40.714Z,2.03
2023-03-14T00:24:08.241Z,3.67
2023-03-14T00:26:35.010Z,3.83
2023-03-14T00:29:01.768Z,3.15
2023-03-14T00:31:28.534Z,3.58
2023-03-14T00:33:55.290Z,4.70
2023-03-14T00:36:22.810Z,1.95
2023-03-14T00:38:52.061Z,3.95
2023-03-14T00:41:20.413Z,4.65
2023-03-14T00:43:47.090Z,2.33
2023-03-14T00:46:13.927Z,1.92
2023-03-14T00:48:41.002Z,2.97
2023-03-14T00:51:08.581Z,1.75
2023-03-14T00:53:39.115Z,2.55
2023-03-14T00:56:07.421Z,1.52
2023-03-14T00:58:34.112Z,2.28
2023-03-14T01:01:03.164Z,1.77
2023-03-14T01:03:29.890Z,2.38
2023-03-14T01:06:06.684Z,2.28
2023-03-14T01:08:33.384Z,3.80
2023-03-14T01:11:00.028Z,2.42
2023-03-14T01:13:26.870Z,1.65
2023-03-14T01:15:53.768Z,3.63
2023-03-14T01:18:21.289Z,2.92
2023-03-14T01:20:47.986Z,1.55
2023-03-14T01:23:14.649Z,2.05
2023-03-14T01:25:42.422Z,1.45
2023-03-14T01:28:09.128Z,1.92
2023-03-14T01:30:35.839Z,2.35
2023-03-14T01:33:02.549Z,2.33
2023-03-14T01:35:29.276Z,1.95
2023-03-14T01:37:57.782Z,2.35
2023-03-14T01:40:24.443Z,2.30
2023-03-14T01:42:59.240Z,2.28
2023-03-14T01:46:13.791Z,2.42
2023-03-14T01:48:46.445Z,2.40
2023-03-14T01:51:19.078Z,2.80
2023-03-14T01:53:45.743Z,1.85
2023-03-14T01:56:13.756Z,2.38
2023-03-14T01:58:40.662Z,4.03
2023-03-14T02:01:07.391Z,2.17
2023-03-14T02:03:37.177Z,2.30
2023-03-14T02:06:06.497Z,1.85
2023-03-14T02:08:33.316Z,2.65
2023-03-14T02:11:00.296Z,1.90
2023-03-14T02:13:27.946Z,2.80
2023-03-14T02:15:54.711Z,3.28
2023-03-14T02:18:21.391Z,2.13
2023-03-14T02:21:05.783Z,2.63
2023-03-14T02:23:56.532Z,2.05
2023-03-14T02:26:44.707Z,0.73
2023-03-14T02:29:11.488Z,1.90
2023-03-14T02:31:38.265Z,2.70
2023-03-14T02:34:04.987Z,2.13
2023-03-14T02:36:31.657Z,4.38
2023-03-14T02:39:16.856Z,2.67
2023-03-14T02:41:46.164Z,2.10
2023-03-14T02:44:13.101Z,1.75
2023-03-14T02:46:39.805Z,5.25
2023-03-14T02:49:08.654Z,2.35
2023-03-14T02:51:35.331Z,3.38
2023-03-14T02:54:02.642Z,2.42
2023-03-14T02:56:29.619Z,1.27
2023-03-14T02:58:58.636Z,2.30
2023-03-14T03:01:25.905Z,1.67
2023-03-14T03:03:52.696Z,1.50
2023-03-14T03:06:19.408Z,1.38
2023-03-14T03:08:46.078Z,2.85
2023-03-14T03:11:12.825Z,2.78
2023-03-14T03:13:39.500Z,1.70
2023-03-14T03:16:06.458Z,0.85
2023-03-14T03:18:33.966Z,3.30
2023-03-14T03:21:04.706Z,1.50
2023-03-14T03:23:32.714Z,1.88
2023-03-14T03:25:59.408Z,1.23
2023-03-14T03:28:26.095Z,2.83
2023-03-14T03:30:52.890Z,2.75
2023-03-14T03:33:19.602Z,2.65
2023-03-14T03:35:50.401Z,2.10
2023-03-14T03:38:17.435Z,3.17
2023-03-14T03:40:44.126Z,2.30
2023-03-14T03:43:10.907Z,4.45
2023-03-14T03:45:37.610Z,1.30
2023-03-14T03:48:05.379Z,2.35
2023-03-14T03:50:32.118Z,1.55
2023-03-14T03:52:58.840Z,1.52
2023-03-14T03:55:29.064Z,2.08
2023-03-14T03:57:55.933Z,3.00
2023-03-14T04:00:22.742Z,2.22
2023-03-14T04:02:49.521Z,3.33
2023-03-14T04:05:16.455Z,1.63
2023-03-14T04:07:43.160Z,5.13
2023-03-14T04:10:10.610Z,2.05
2023-03-14T04:12:37.293Z,2.08
2023-03-14T04:15:04.668Z,4.13
2023-03-14T04:17:31.317Z,3.28
2023-03-14T04:19:57.979Z,3.95
2023-03-14T04:22:24.624Z,3.20
2023-03-14T04:24:51.334Z,2.15
2023-03-14T04:27:18.076Z,1.20
2023-03-14T04:29:44.782Z,1.65
2023-03-14T04:32:11.567Z,2.40
2023-03-14T04:34:38.442Z,3.72
2023-03-14T04:37:06.474Z,1.75
2023-03-14T04:39:33.137Z,2.03
2023-03-14T04:41:59.788Z,6.82
2023-03-14T04:44:26.536Z,2.25
2023-03-14T04:46:53.277Z,3.22
2023-03-14T04:49:19.967Z,1.70
2023-03-14T04:51:46.696Z,1.63
2023-03-14T04:54:13.442Z,2.33
2023-03-14T04:56:40.144Z,3.13
2023-03-14T04:59:09.230Z,1.95
2023-03-14T05:01:36.834Z,1.98
2023-03-14T05:04:03.848Z,1.65
2023-03-14T05:06:30.568Z,1.30
2023-03-14T05:08:57.265Z,2.72
2023-03-14T05:11:23.976Z,1.38
2023-03-14T05:13:50.677Z,2.13
2023-03-14T05:16:17.468Z,1.48
2023-03-14T05:18:44.201Z,2.65
2023-03-14T05:21:10.888Z,1.83
2023-03-14T05:23:38.666Z,0.73
2023-03-14T05:26:05.558Z,1.55
2023-03-14T05:28:32.262Z,1.48
2023-03-14T05:30:59.024Z,2.65
2023-03-14T05:33:25.707Z,1.30
2023-03-14T05:35:52.392Z,1.75
2023-03-14T05:38:19.424Z,3.03
2023-03-14T05:40:46.546Z,2.40
2023-03-14T05:43:13.228Z,1.25
2023-03-14T05:45:41.628Z,2.22
2023-03-14T05:48:09.269Z,1.40
2023-03-14T05:50:36.191Z,1.73
2023-03-14T05:53:02.988Z,1.67
2023-03-14T05:55:29.649Z,4.40
2023-03-14T05:57:56.403Z,2.35
2023-03-14T06:00:23.435Z,3.03
2023-03-14T06:02:50.286Z,1.65
2023-03-14T06:05:17.077Z,3.13
2023-03-14T06:07:43.777Z,4.28
2023-03-14T06:10:11.736Z,1.60
2023-03-14T06:12:38.658Z,3.67
2023-03-14T06:15:06.793Z,1.80
2023-03-14T06:17:33.491Z,6.47
2023-03-14T06:20:00.230Z,1.38
2023-03-14T06:22:26.900Z,3.40
2023-03-14T06:24:53.553Z,1.63
2023-03-14T06:27:20.204Z,1.60
2023-03-14T06:29:46.880Z,4.20
2023-03-14T06:32:13.678Z,2.95
2023-03-14T06:34:41.984Z,3.30
2023-03-14T06:37:09.665Z,3.35
2023-03-14T06:39:36.419Z,1.65
2023-03-14T06:42:03.178Z,1.35
2023-03-14T06:44:29.845Z,1.63
2023-03-14T06:46:56.595Z,2.85
2023-03-14T06:49:23.411Z,2.05
2023-03-14T06:51:50.085Z,1.63
2023-03-14T06:54:16.740Z,2.85
2023-03-14T06:56:43.450Z,2.92
2023-03-14T06:59:11.539Z,2.63
2023-03-14T07:01:38.562Z,0.28
2023-03-14T07:04:06.228Z,1.45
2023-03-14T07:06:33.884Z,4.25
2023-03-14T07:09:02.929Z,1.25
2023-03-14T07:11:29.893Z,1.67
2023-03-14T07:13:56.603Z,1.40
2023-03-14T07:16:23.343Z,1.40
2023-03-14T07:18:50.393Z,1.10
2023-03-14T07:21:17.154Z,1.15
2023-03-14T07:23:43.820Z,4.72
2023-03-14T07:26:11.299Z,4.53
2023-03-14T07:28:38.028Z,4.30
2023-03-14T07:31:05.098Z,12.00
2023-03-14T07:33:31.838Z,3.83
2023-03-14T07:35:58.526Z,6.13
2023-03-14T07:38:25.281Z,7.70
2023-03-14T07:40:52.017Z,6.38
2023-03-14T07:43:18.773Z,5.40
2023-03-14T07:45:58.724Z,16.13
2023-03-14T07:48:27.813Z,4.35
2023-03-14T07:50:55.244Z,4.15
2023-03-14T07:53:22.463Z,9.65
2023-03-14T07:55:49.243Z,7.68
2023-03-14T07:58:16.029Z,7.15
2023-03-14T08:00:42.742Z,7.30
2023-03-14T08:03:11.356Z,8.30
2023-03-14T08:05:38.486Z,10.52
2023-03-14T08:08:06.307Z,3.85
2023-03-14T08:10:33.015Z,9.82
2023-03-14T08:13:00.615Z,6.80
2023-03-14T08:15:27.509Z,4.20
2023-03-14T08:17:54.952Z,5.28
2023-03-14T08:20:22.780Z,7.28
2023-03-14T08:22:49.470Z,4.90
2023-03-14T08:25:16.429Z,6.53
2023-03-14T08:27:43.561Z,2.72
2023-03-14T08:30:15.329Z,7.80
2023-03-14T08:32:42.240Z,5.43
2023-03-14T08:35:10.597Z,6.55
2023-03-14T08:37:37.361Z,5.32
2023-03-14T08:40:07.847Z,3.75
2023-03-14T08:42:34.858Z,6.70
2023-03-14T08:45:01.550Z,5.68
2023-03-14T08:47:28.545Z,6.05
2023-03-14T08:49:55.310Z,5.82
2023-03-14T08:52:22.132Z,5.53
2023-03-14T08:54:48.782Z,3.00
2023-03-14T08:57:15.624Z,3.40
2023-03-14T08:59:42.359Z,7.70
2023-03-14T09:02:14.023Z,3.53
2023-03-14T09:04:41.702Z,4.90
2023-03-14T09:07:09.641Z,3.75
2023-03-14T09:09:39.454Z,3.33
2023-03-14T09:12:06.718Z,4.22
2023-03-14T09:14:33.520Z,4.78
2023-03-14T09:17:00.202Z,4.70
2023-03-14T09:19:26.944Z,2.85
2023-03-14T09:21:53.667Z,3.63
2023-03-14T09:24:20.336Z,4.38
2023-03-14T09:26:47.050Z,4.93
2023-03-14T09:29:13.769Z,5.10
2023-03-14T09:31:41.783Z,5.57
2023-03-14T09:34:09.518Z,8.68
2023-03-14T09:36:36.295Z,5.20
2023-03-14T09:39:02.956Z,4.05
2023-03-14T09:41:30.727Z,4.80
2023-03-14T09:44:01.209Z,3.75
2023-03-14T09:46:28.593Z,4.07
2023-03-14T09:48:55.322Z,4.68
2023-03-14T09:51:24.448Z,4.72
2023-03-14T09:53:51.255Z,4.22
2023-03-14T09:56:20.279Z,4.82
2023-03-14T09:58:51.968Z,4.88
2023-03-14T10:01:22.046Z,4.60
2023-03-14T10:03:48.795Z,3.70
2023-03-14T10:06:15.709Z,3.47
2023-03-14T10:08:43.141Z,3.50
2023-03-14T10:11:19.308Z,4.15
2023-03-14T10:14:06.103Z,4.07
2023-03-14T10:16:34.595Z,3.35
2023-03-14T10:19:11.552Z,3.78
2023-03-14T10:21:41.648Z,4.10
2023-03-14T10:24:27.920Z,3.65
2023-03-14T10:27:04.950Z,4.28
2023-03-14T10:29:32.734Z,6.43
2023-03-14T10:32:04.623Z,3.90
2023-03-14T10:34:32.733Z,4.45
2023-03-14T10:37:08.452Z,4.70
2023-03-14T10:39:47.440Z,4.95
2023-03-14T10:42:26.702Z,5.05
2023-03-14T10:44:57.480Z,3.65
2023-03-14T10:47:25.367Z,4.55
2023-03-14T10:49:52.153Z,3.42
2023-03-14T10:52:35.659Z,6.32
2023-03-14T10:55:14.775Z,5.72
2023-03-14T10:57:43.999Z,4.78
2023-03-14T11:00:17.985Z,5.00
2023-03-14T11:02:55.024Z,6.82
2023-03-14T11:05:34.006Z,5.20
2023-03-14T11:08:09.576Z,4.90
2023-03-14T11:10:43.708Z,4.20
2023-03-14T11:13:13.409Z,4.90
2023-03-14T11:15:47.098Z,6.40
2023-03-14T11:18:23.354Z,6.03
2023-03-14T11:21:10.417Z,4.47
2023-03-14T11:23:51.494Z,6.43
2023-03-14T11:26:44.502Z,4.53
2023-03-14T11:29:38.008Z,5.47
2023-03-14T11:32:10.149Z,4.78
2023-03-14T11:34:44.748Z,7.20
2023-03-14T11:37:33.018Z,4.07
2023-03-14T11:40:14.942Z,5.65
2023-03-14T11:42:44.986Z,3.28
2023-03-14T11:45:17.358Z,4.53
2023-03-14T11:47:45.186Z,3.35
2023-03-14T11:50:28.233Z,4.35
2023-03-14T11:53:04.815Z,4.25
2023-03-14T11:55:36.528Z,2.63
2023-03-14T11:58:32.645Z,3.38
2023-03-14T12:00:59.402Z,3.92
2023-03-14T12:04:01.670Z,5.10
2023-03-14T12:07:03.009Z,3.63
2023-03-14T12:09:29.746Z,3.47
2023-03-14T12:11:59.134Z,7.03
2023-03-14T12:14:36.575Z,5.78
2023-03-14T12:17:07.589Z,3.00
2023-03-14T12:19:38.938Z,3.78
2023-03-14T12:22:28.890Z,4.78
2023-03-14T12:25:08.115Z,6.30
2023-03-14T12:27:50.944Z,4.95
2023-03-14T12:30:29.347Z,4.07
2023-03-14T12:33:11.100Z,6.32
2023-03-14T12:35:42.458Z,5.15
2023-03-14T12:38:38.191Z,4.72
2023-03-14T12:41:23.528Z,4.13
2023-03-14T12:43:50.378Z,3.28
2023-03-14T12:46:27.168Z,6.97
2023-03-14T12:49:03.532Z,9.63
2023-03-14T12:51:36.313Z,6.97
2023-03-14T12:54:33.976Z,7.05
2023-03-14T12:57:24.625Z,8.05
2023-03-14T13:00:00.339Z,5.57
2023-03-14T13:02:49.531Z,6.72
2023-03-14T13:05:25.503Z,7.85
2023-03-14T13:07:55.871Z,11.32
2023-03-14T13:10:37.205Z,12.43
2023-03-14T13:13:27.001Z,5.53
2023-03-14T13:16:01.410Z,7.85
2023-03-14T13:18:37.045Z,6.10
2023-03-14T13:21:17.208Z,7.03
2023-03-14T13:23:55.993Z,5.50
2023-03-14T13:26:22.769Z,5.65
2023-03-14T13:28:49.416Z,6.28
2023-03-14T13:31:25.947Z,8.35
2023-03-14T13:34:03.019Z,7.78
2023-03-14T13:36:30.207Z,9.35
2023-03-14T13:38:58.550Z,8.32
2023-03-14T13:41:25.371Z,7.63
2023-03-14T13:43:52.028Z,6.82
2023-03-14T13:46:23.016Z,9.27
2023-03-14T13:48:55.654Z,5.00
2023-03-14T13:51:22.630Z,6.95
2023-03-14T13:53:53.236Z,5.53
2023-03-14T13:56:24.414Z,6.38
2023-03-14T13:58:51.297Z,7.97
2023-03-14T14:01:19.469Z,11.75
2023-03-14T14:03:52.533Z,5.82
2023-03-14T14:06:35.532Z,8.68
2023-03-14T14:09:16.612Z,10.88
2023-03-14T14:12:07.503Z,10.15
2023-03-14T14:14:51.464Z,5.40
2023-03-14T14:17:23.644Z,8.95
2023-03-14T14:19:50.355Z,6.05
2023-03-14T14:22:18.590Z,7.88
2023-03-14T14:24:45.497Z,8.27
2023-03-14T14:27:27.614Z,10.05
2023-03-14T14:30:02.162Z,13.00
2023-03-14T14:32:35.906Z,9.13
2023-03-14T14:35:04.124Z,5.55
2023-03-14T14:37:33.155Z,11.35
2023-03-14T14:40:01.722Z,10.23
2023-03-14T14:42:30.706Z,6.65
2023-03-14T14:44:58.016Z,5.20
2023-03-14T14:47:25.869Z,9.32
2023-03-14T14:49:53.945Z,8.40
2023-03-14T14:52:34.192Z,9.18
2023-03-14T14:55:01.399Z,6.50
2023-03-14T14:57:31.447Z,11.18
2023-03-14T15:00:01.607Z,9.15
2023-03-14T15:02:46.339Z,9.75
2023-03-14T15:05:14.625Z,9.85
2023-03-14T15:07:41.411Z,10.73
2023-03-14T15:10:11.567Z,11.48
2023-03-14T15:12:41.113Z,9.88
2023-03-14T15:15:08.532Z,8.43
2023-03-14T15:17:35.624Z,7.03
2023-03-14T15:20:03.074Z,8.25
2023-03-14T15:22:29.759Z,9.52
2023-03-14T15:24:56.422Z,7.70
2023-03-14T15:27:23.523Z,7.47
2023-03-14T15:29:50.977Z,10.25
2023-03-14T15:32:20.302Z,6.05
2023-03-14T15:34:47.171Z,5.78
2023-03-14T15:37:16.573Z,5.97
2023-03-14T15:39:43.877Z,6.47
2023-03-14T15:42:10.741Z,5.82
2023-03-14T15:44:37.499Z,7.57
2023-03-14T15:47:04.266Z,4.97
2023-03-14T15:49:31.000Z,6.82
2023-03-14T15:51:58.205Z,6.25
2023-03-14T15:54:29.120Z,4.38
2023-03-14T15:56:58.992Z,8.23
2023-03-14T15:59:26.018Z,5.00
2023-03-14T16:01:52.734Z,4.38
2023-03-14T16:04:20.563Z,5.78
2023-03-14T16:06:49.546Z,4.43
2023-03-14T16:09:16.263Z,4.72
2023-03-14T16:11:45.013Z,6.60
2023-03-14T16:14:11.685Z,4.38
2023-03-14T16:16:38.386Z,6.50
2023-03-14T16:19:07.500Z,5.97
2023-03-14T16:21:34.235Z,7.50
2023-03-14T16:24:02.950Z,5.57
2023-03-14T16:26:29.948Z,5.10
2023-03-14T16:28:56.608Z,3.92
2023-03-14T16:31:25.141Z,5.13
2023-03-14T16:33:51.960Z,4.43
2023-03-14T16:36:20.533Z,6.85
2023-03-14T16:38:48.820Z,6.85
2023-03-14T16:41:20.996Z,2.72
2023-03-14T16:43:51.954Z,7.50
2023-03-14T16:46:22.299Z,4.72
2023-03-14T16:48:51.024Z,7.07
2023-03-14T16:51:19.391Z,5.20
2023-03-14T16:53:46.426Z,5.32
2023-03-14T16:56:13.255Z,7.50
2023-03-14T16:58:40.074Z,5.57
2023-03-14T17:01:10.684Z,5.25
2023-03-14T17:03:39.264Z,3.88
2023-03-14T17:06:06.441Z,4.55
2023-03-14T17:08:33.236Z,2.95
2023-03-14T17:10:59.932Z,8.18
2023-03-14T17:13:27.566Z,4.93
2023-03-14T17:15:55.716Z,5.43
2023-03-14T17:18:23.444Z,6.05
2023-03-14T17:20:54.060Z,4.80
2023-03-14T17:23:21.168Z,8.32
2023-03-14T17:25:49.284Z,5.75
2023-03-14T17:28:19.644Z,6.18
2023-03-14T17:30:46.519Z,3.72
2023-03-14T17:33:13.528Z,4.00
2023-03-14T17:35:40.367Z,5.00
2023-03-14T17:38:07.088Z,8.02
2023-03-14T17:40:33.789Z,6.38
2023-03-14T17:43:00.544Z,3.45
2023-03-14T17:45:27.282Z,3.65
2023-03-14T17:47:54.062Z,4.18
2023-03-14T17:50:21.901Z,3.38
2023-03-14T17:52:49.731Z,4.55
2023-03-14T17:55:16.541Z,4.25
2023-03-14T17:57:44.879Z,5.28
2023-03-14T18:00:13.110Z,3.00
2023-03-14T18:02:41.829Z,5.40
2023-03-14T18:05:08.898Z,3.95
2023-03-14T18:07:36.023Z,4.90
2023-03-14T18:10:03.135Z,7.38
2023-03-14T18:12:29.953Z,5.07
2023-03-14T18:14:56.643Z,3.03
2023-03-14T18:17:23.420Z,3.42
2023-03-14T18:19:50.705Z,4.70
2023-03-14T18:22:17.480Z,11.88
2023-03-14T18:24:50.402Z,15.18
2023-03-14T18:27:18.588Z,10.23
2023-03-14T18:29:45.327Z,6.25
2023-03-14T18:32:12.000Z,7.72
2023-03-14T18:34:38.734Z,6.35
2023-03-14T18:37:05.424Z,7.00
2023-03-14T18:39:32.206Z,10.63
2023-03-14T18:41:58.985Z,8.95
2023-03-14T18:44:25.737Z,8.75
2023-03-14T18:46:52.514Z,7.45
2023-03-14T18:49:21.557Z,8.15
2023-03-14T18:51:50.208Z,11.32
2023-03-14T18:54:17.001Z,7.15
2023-03-14T18:56:43.674Z,8.50
2023-03-14T18:59:10.611Z,6.72
2023-03-14T19:01:37.632Z,10.85
2023-03-14T19:04:04.625Z,8.85
2023-03-14T19:06:32.986Z,11.27
2023-03-14T19:09:02.726Z,7.00
2023-03-14T19:11:29.489Z,6.45
2023-03-14T19:13:56.922Z,8.63
2023-03-14T19:16:24.764Z,12.20
2023-03-14T19:18:55.644Z,8.02
2023-03-14T19:21:33.628Z,9.32
2023-03-14T19:24:00.962Z,8.10
2023-03-14T19:26:30.140Z,13.80
2023-03-14T19:28:57.116Z,8.73
2023-03-14T19:31:24.326Z,6.03
2023-03-14T19:33:53.266Z,6.50
2023-03-14T19:36:31.238Z,9.07
2023-03-14T19:38:59.371Z,8.07
2023-03-14T19:41:26.345Z,7.13
2023-03-14T19:43:53.131Z,11.93
2023-03-14T19:46:20.582Z,8.40
2023-03-14T19:48:48.604Z,6.63
2023-03-14T19:51:15.747Z,9.73
2023-03-14T19:53:43.348Z,9.63
2023-03-14T19:56:10.660Z,5.60
2023-03-14T19:58:40.821Z,7.72
2023-03-14T20:01:08.559Z,4.82
2023-03-14T20:03:36.567Z,5.47
2023-03-14T20:06:08.496Z,8.50
2023-03-14T20:08:35.313Z,4.40
2023-03-14T20:11:05.363Z,6.88
2023-03-14T20:13:32.418Z,11.43
2023-03-14T20:15:59.140Z,10.13
2023-03-14T20:18:25.918Z,7.50
2023-03-14T20:20:53.839Z,6.93
2023-03-14T20:23:21.510Z,8.02
2023-03-14T20:25:55.958Z,7.72
2023-03-14T20:28:23.506Z,6.88
2023-03-14T20:30:50.600Z,4.60
2023-03-14T20:33:19.837Z,5.80
2023-03-14T20:35:59.548Z,6.70
2023-03-14T20:38:26.750Z,9.10
2023-03-14T20:40:57.031Z,5.40
2023-03-14T20:43:24.354Z,2.97
2023-03-14T20:45:53.412Z,6.47
2023-03-14T20:48:20.424Z,5.72
2023-03-14T20:50:48.268Z,6.05
2023-03-14T20:53:16.839Z,6.38
2023-03-14T20:55:43.664Z,7.45
2023-03-14T20:58:13.522Z,4.32
2023-03-14T21:00:41.119Z,6.47
2023-03-14T21:03:07.823Z,4.90
2023-03-14T21:05:34.715Z,3.78
2023-03-14T21:08:01.449Z,4.00
2023-03-14T21:10:28.324Z,7.03
2023-03-14T21:12:54.996Z,6.32
2023-03-14T21:15:23.111Z,4.80
2023-03-14T21:17:49.825Z,6.35
2023-03-14T21:20:16.667Z,5.85
2023-03-14T21:22:43.400Z,6.57
2023-03-14T21:25:10.294Z,4.85
2023-03-14T21:27:40.726Z,6.00
2023-03-14T21:30:08.443Z,3.28
2023-03-14T21:32:35.240Z,3.45
2023-03-14T21:35:02.133Z,5.07
2023-03-14T21:37:28.876Z,4.15
2023-03-14T21:39:55.614Z,8.02
2023-03-14T21:42:25.605Z,5.47
2023-03-14T21:44:52.295Z,4.03
2023-03-14T21:47:19.804Z,5.05
2023-03-14T21:49:46.635Z,3.03
2023-03-14T21:52:13.911Z,2.90
2023-03-14T21:54:42.901Z,2.97
2023-03-14T21:57:09.718Z,3.00
2023-03-14T21:59:36.883Z,5.63
2023-03-14T22:02:04.841Z,4.43
2023-03-14T22:04:35.182Z,2.95
2023-03-14T22:07:05.505Z,3.42
2023-03-14T22:09:32.541Z,3.38
2023-03-14T22:11:59.374Z,4.88
2023-03-14T22:14:27.259Z,6.88
2023-03-14T22:16:54.600Z,3.38
2023-03-14T22:19:21.997Z,2.58
2023-03-14T22:21:48.888Z,2.03
2023-03-14T22:24:15.564Z,3.72
2023-03-14T22:26:42.289Z,3.60
2023-03-14T22:29:09.030Z,3.05
2023-03-14T22:31:35.755Z,2.88
2023-03-14T22:34:02.500Z,3.10
2023-03-14T22:36:29.282Z,3.53
2023-03-14T22:38:57.154Z,4.45
2023-03-14T22:41:23.820Z,3.50
2023-03-14T22:43:50.563Z,2.20
2023-03-14T22:46:17.255Z,5.50
2023-03-14T22:48:43.914Z,3.03
2023-03-14T22:51:11.433Z,2.78
2023-03-14T22:53:38.835Z,3.55
2023-03-14T22:56:06.801Z,4.03
2023-03-14T22:58:33.853Z,2.83
2023-03-14T23:01:01.196Z,3.45
2023-03-14T23:03:29.430Z,3.67
2023-03-14T23:05:56.796Z,2.92
2023-03-14T23:08:24.143Z,2.88
2023-03-14T23:10:53.457Z,3.47
2023-03-14T23:13:20.492Z,3.22
2023-03-14T23:15:47.192Z,2.15
2023-03-14T23:18:13.952Z,3.80
2023-03-14T23:20:42.997Z,1.85
2023-03-14T23:23:13.660Z,3.63
2023-03-14T23:25:52.544Z,3.15
2023-03-14T23:28:23.024Z,5.35
2023-03-14T23:30:56.667Z,2.58
2023-03-14T23:33:23.886Z,6.07
2023-03-14T23:35:50.612Z,2.83
2023-03-14T23:38:17.363Z,4.13
2023-03-14T23:40:44.093Z,3.15
2023-03-14T23:43:10.817Z,3.65
2023-03-14T23:45:37.490Z,6.75
2023-03-14T23:48:05.060Z,3.28
2023-03-14T23:50:34.587Z,6.30
2023-03-14T23:53:01.924Z,2.13
2023-03-14T23:55:28.598Z,3.90
2023-03-14T23:57:55.295Z,3.90
